sensor_id;sensor_type;location;lat;lon;timestamp;temperature;humidity
35027;DHT22;60696;51.426;6.934;2023-04-15T00:00:03;7.90;99.90
35027;DHT22;60696;51.426;6.934;2023-04-15T00:02:29;8.00;99.90
35027;DHT22;60696;51.426;6.934;2023-04-15T00:04:55;8.10;99.90
35027;DHT22;60696;51.426;6.934;2023-04-15T00:07:21;8.10;99.90
35027;DHT22;60696;51.426;6.934;2023-04-15T00:09:46;8.20;99.90
35027;DHT22;60696;51.426;6.934;2023-04-15T00:12:12;8.10;99.90
35027;DHT22;60696;51.426;6.934;2023-04-15T00:14:37;8.10;99.90
35027;DHT22;60696;51.426;6.934;2023-04-15T00:17:04;8.10;99.90
35027;DHT22;60696;51.426;6.934;2023-04-15T00:19:30;8.00;99.90
35027;DHT22;60696;51.426;6.934;2023-04-15T00:21:56;8.00;99.90
35027;DHT22;60696;51.426;6.934;2023-04-15T00:24:22;7.80;99.90
35027;DHT22;60696;51.426;6.934;2023-04-15T00:26:48;7.80;99.90
35027;DHT22;60696;51.426;6.934;2023-04-15T00:29:14;7.80;99.90
35027;DHT22;60696;51.426;6.934;2023-04-15T00:31:40;7.80;99.90
35027;DHT22;60696;51.426;6.934;2023-04-15T00:34:06;7.80;99.90
35027;DHT22;60696;51.426;6.934;2023-04-15T00:36:32;7.70;99.90
35027;DHT22;60696;51.426;6.934;2023-04-15T00:38:59;7.50;99.90
35027;DHT22;60696;51.426;6.934;2023-04-15T00:41:25;7.50;99.90
35027;DHT22;60696;51.426;6.934;2023-04-15T00:43:50;7.50;99.90
35027;DHT22;60696;51.426;6.934;2023-04-15T00:46:17;7.60;99.90
35027;DHT22;60696;51.426;6.934;2023-04-15T00:48:46;7.50;99.90
35027;DHT22;60696;51.426;6.934;2023-04-15T00:51:12;7.60;99.90
35027;DHT22;60696;51.426;6.934;2023-04-15T00:53:38;7.60;99.90
35027;DHT22;60696;51.426;6.934;2023-04-15T00:56:04;7.60;99.90
35027;DHT22;60696;51.426;6.934;2023-04-15T00:58:30;7.70;99.90
35027;DHT22;60696;51.426;6.934;2023-04-15T01:00:56;7.70;99.90
35027;DHT22;60696;51.426;6.934;2023-04-15T01:03:22;7.70;99.90
35027;DHT22;60696;51.426;6.934;2023-04-15T01:05:48;7.50;99.90
35027;DHT22;60696;51.426;6.934;2023-04-15T01:08:14;7.50;99.90
35027;DHT22;60696;51.426;6.934;2023-04-15T01:10:40;7.50;99.90
35027;DHT22;60696;51.426;6.934;2023-04-15T01:13:06;7.40;99.90
35027;DHT22;60696;51.426;6.934;2023-04-15T01:15:32;7.40;99.90
35027;DHT22;60696;51.426;6.934;2023-04-15T01:18:00;7.50;99.90
35027;DHT22;60696;51.426;6.934;2023-04-15T01:20:28;7.50;99.90
35027;DHT22;60696;51.426;6.934;2023-04-15T01:22:54;7.50;99.90
35027;DHT22;60696;51.426;6.934;2023-04-15T01:25:38;7.60;99.90
35027;DHT22;60696;51.426;6.934;2023-04-15T01:28:06;7.50;99.90
35027;DHT22;60696;51.426;6.934;2023-04-15T01:30:34;7.50;99.90
35027;DHT22;60696;51.426;6.934;2023-04-15T01:33:00;7.50;99.90
35027;DHT22;60696;51.426;6.934;2023-04-15T01:35:26;7.40;99.90
35027;DHT22;60696;51.426;6.934;2023-04-15T01:37:53;7.40;99.90
35027;DHT22;60696;51.426;6.934;2023-04-15T01:40:19;7.40;99.90
35027;DHT22;60696;51.426;6.934;2023-04-15T01:42:45;7.30;99.90
35027;DHT22;60696;51.426;6.934;2023-04-15T01:45:11;7.30;99.90
35027;DHT22;60696;51.426;6.934;2023-04-15T01:47:38;7.30;99.90
35027;DHT22;60696;51.426;6.934;2023-04-15T01:50:04;7.30;99.90
35027;DHT22;60696;51.426;6.934;2023-04-15T01:52:31;7.30;99.90
35027;DHT22;60696;51.426;6.934;2023-04-15T01:54:57;7.30;99.90
35027;DHT22;60696;51.426;6.934;2023-04-15T01:57:22;7.30;99.90
35027;DHT22;60696;51.426;6.934;2023-04-15T01:59:48;7.20;99.90
35027;DHT22;60696;51.426;6.934;2023-04-15T02:02:13;7.20;99.90
35027;DHT22;60696;51.426;6.934;2023-04-15T02:04:39;7.10;99.90
35027;DHT22;60696;51.426;6.934;2023-04-15T02:07:05;7.20;99.90
35027;DHT22;60696;51.426;6.934;2023-04-15T02:09:31;7.10;99.90
35027;DHT22;60696;51.426;6.934;2023-04-15T02:11:57;7.10;99.90
35027;DHT22;60696;51.426;6.934;2023-04-15T02:14:22;7.10;99.90
35027;DHT22;60696;51.426;6.934;2023-04-15T02:16:48;7.00;99.90
35027;DHT22;60696;51.426;6.934;2023-04-15T02:19:13;6.90;99.90
35027;DHT22;60696;51.426;6.934;2023-04-15T02:21:39;6.90;99.90
35027;DHT22;60696;51.426;6.934;2023-04-15T02:24:05;6.90;99.90
35027;DHT22;60696;51.426;6.934;2023-04-15T02:26:31;6.90;99.90
35027;DHT22;60696;51.426;6.934;2023-04-15T02:28:58;6.80;99.90
35027;DHT22;60696;51.426;6.934;2023-04-15T02:31:24;6.70;99.90
35027;DHT22;60696;51.426;6.934;2023-04-15T02:33:50;6.70;99.90
35027;DHT22;60696;51.426;6.934;2023-04-15T02:36:15;6.70;99.90
35027;DHT22;60696;51.426;6.934;2023-04-15T02:38:41;6.70;99.90
35027;DHT22;60696;51.426;6.934;2023-04-15T02:41:10;6.60;99.90
35027;DHT22;60696;51.426;6.934;2023-04-15T02:43:36;6.70;99.90
35027;DHT22;60696;51.426;6.934;2023-04-15T02:46:02;6.70;99.90
35027;DHT22;60696;51.426;6.934;2023-04-15T02:48:28;6.70;99.90
35027;DHT22;60696;51.426;6.934;2023-04-15T02:51:09;6.70;99.90
35027;DHT22;60696;51.426;6.934;2023-04-15T02:53:34;6.70;99.90
35027;DHT22;60696;51.426;6.934;2023-04-15T02:56:00;6.90;99.90
35027;DHT22;60696;51.426;6.934;2023-04-15T02:58:26;6.90;99.90
35027;DHT22;60696;51.426;6.934;2023-04-15T03:00:51;6.80;99.90
35027;DHT22;60696;51.426;6.934;2023-04-15T03:03:17;6.70;99.90
35027;DHT22;60696;51.426;6.934;2023-04-15T03:05:43;6.70;99.90
35027;DHT22;60696;51.426;6.934;2023-04-15T03:08:09;6.70;99.90
35027;DHT22;60696;51.426;6.934;2023-04-15T03:10:34;6.70;99.90
35027;DHT22;60696;51.426;6.934;2023-04-15T03:13:00;6.80;99.90
35027;DHT22;60696;51.426;6.934;2023-04-15T03:15:25;6.80;99.90
35027;DHT22;60696;51.426;6.934;2023-04-15T03:17:51;6.80;99.90
35027;DHT22;60696;51.426;6.934;2023-04-15T03:20:17;6.70;99.90
35027;DHT22;60696;51.426;6.934;2023-04-15T03:22:42;6.60;99.90
35027;DHT22;60696;51.426;6.934;2023-04-15T03:25:08;6.50;99.90
35027;DHT22;60696;51.426;6.934;2023-04-15T03:27:34;6.50;99.90
35027;DHT22;60696;51.426;6.934;2023-04-15T03:30:00;6.50;99.90
35027;DHT22;60696;51.426;6.934;2023-04-15T03:32:25;6.50;99.90
35027;DHT22;60696;51.426;6.934;2023-04-15T03:34:51;6.60;99.90
35027;DHT22;60696;51.426;6.934;2023-04-15T03:37:17;6.60;99.90
35027;DHT22;60696;51.426;6.934;2023-04-15T03:39:42;6.50;99.90
35027;DHT22;60696;51.426;6.934;2023-04-15T03:42:08;6.40;99.90
35027;DHT22;60696;51.426;6.934;2023-04-15T03:44:33;6.40;99.90
35027;DHT22;60696;51.426;6.934;2023-04-15T03:46:59;6.30;99.90
35027;DHT22;60696;51.426;6.934;2023-04-15T03:49:25;6.40;99.90
35027;DHT22;60696;51.426;6.934;2023-04-15T03:51:50;6.40;99.90
35027;DHT22;60696;51.426;6.934;2023-04-15T03:54:16;6.40;99.90
35027;DHT22;60696;51.426;6.934;2023-04-15T03:56:42;6.30;99.90
35027;DHT22;60696;51.426;6.934;2023-04-15T03:59:07;6.30;99.90
35027;DHT22;60696;51.426;6.934;2023-04-15T04:01:33;6.30;99.90
35027;DHT22;60696;51.426;6.934;2023-04-15T04:03:58;6.30;99.90
35027;DHT22;60696;51.426;6.934;2023-04-15T04:06:24;6.10;99.90
35027;DHT22;60696;51.426;6.934;2023-04-15T04:08:50;6.20;99.90
35027;DHT22;60696;51.426;6.934;2023-04-15T04:11:16;6.10;99.90
35027;DHT22;60696;51.426;6.934;2023-04-15T04:13:41;6.10;99.90
35027;DHT22;60696;51.426;6.934;2023-04-15T04:16:07;6.20;99.90
35027;DHT22;60696;51.426;6.934;2023-04-15T04:18:33;6.10;99.90
35027;DHT22;60696;51.426;6.934;2023-04-15T04:20:59;6.20;99.90
35027;DHT22;60696;51.426;6.934;2023-04-15T04:23:24;6.10;99.90
35027;DHT22;60696;51.426;6.934;2023-04-15T04:25:50;6.00;99.90
35027;DHT22;60696;51.426;6.934;2023-04-15T04:28:17;6.00;99.90
35027;DHT22;60696;51.426;6.934;2023-04-15T04:30:42;6.00;99.90
35027;DHT22;60696;51.426;6.934;2023-04-15T04:33:08;6.00;99.90
35027;DHT22;60696;51.426;6.934;2023-04-15T04:35:33;6.00;99.90
35027;DHT22;60696;51.426;6.934;2023-04-15T04:38:02;6.00;99.90
35027;DHT22;60696;51.426;6.934;2023-04-15T04:40:28;6.00;99.90
35027;DHT22;60696;51.426;6.934;2023-04-15T04:42:53;6.00;99.90
35027;DHT22;60696;51.426;6.934;2023-04-15T04:45:19;6.00;99.90
35027;DHT22;60696;51.426;6.934;2023-04-15T04:47:45;6.00;99.90
35027;DHT22;60696;51.426;6.934;2023-04-15T04:50:11;5.90;99.90
35027;DHT22;60696;51.426;6.934;2023-04-15T04:52:37;5.80;99.90
35027;DHT22;60696;51.426;6.934;2023-04-15T04:55:03;5.90;99.90
35027;DHT22;60696;51.426;6.934;2023-04-15T04:57:29;5.90;99.90
35027;DHT22;60696;51.426;6.934;2023-04-15T04:59:55;6.00;99.90
35027;DHT22;60696;51.426;6.934;2023-04-15T05:02:21;6.00;99.90
35027;DHT22;60696;51.426;6.934;2023-04-15T05:04:46;6.10;99.90
35027;DHT22;60696;51.426;6.934;2023-04-15T05:07:12;6.10;99.90
35027;DHT22;60696;51.426;6.934;2023-04-15T05:09:37;6.00;99.90
35027;DHT22;60696;51.426;6.934;2023-04-15T05:12:03;6.10;99.90
35027;DHT22;60696;51.426;6.934;2023-04-15T05:14:29;6.10;99.90
35027;DHT22;60696;51.426;6.934;2023-04-15T05:16:55;6.10;99.90
35027;DHT22;60696;51.426;6.934;2023-04-15T05:19:21;6.10;99.90
35027;DHT22;60696;51.426;6.934;2023-04-15T05:21:46;6.10;99.90
35027;DHT22;60696;51.426;6.934;2023-04-15T05:24:12;6.10;99.90
35027;DHT22;60696;51.426;6.934;2023-04-15T05:26:37;6.20;99.90
35027;DHT22;60696;51.426;6.934;2023-04-15T05:29:03;6.30;99.90
35027;DHT22;60696;51.426;6.934;2023-04-15T05:31:29;6.40;99.90
35027;DHT22;60696;51.426;6.934;2023-04-15T05:33:54;6.40;99.90
35027;DHT22;60696;51.426;6.934;2023-04-15T05:36:20;6.40;99.90
35027;DHT22;60696;51.426;6.934;2023-04-15T05:38:46;6.40;99.90
35027;DHT22;60696;51.426;6.934;2023-04-15T05:41:12;6.40;99.90
35027;DHT22;60696;51.426;6.934;2023-04-15T05:43:40;6.50;99.90
35027;DHT22;60696;51.426;6.934;2023-04-15T05:46:05;6.60;99.90
35027;DHT22;60696;51.426;6.934;2023-04-15T05:48:31;6.70;99.90
35027;DHT22;60696;51.426;6.934;2023-04-15T05:50:57;6.90;99.90
35027;DHT22;60696;51.426;6.934;2023-04-15T05:53:22;7.20;99.90
35027;DHT22;60696;51.426;6.934;2023-04-15T05:55:48;7.50;99.90
35027;DHT22;60696;51.426;6.934;2023-04-15T05:58:14;7.80;99.90
35027;DHT22;60696;51.426;6.934;2023-04-15T06:00:39;7.90;99.90
35027;DHT22;60696;51.426;6.934;2023-04-15T06:03:05;7.90;99.90
35027;DHT22;60696;51.426;6.934;2023-04-15T06:05:32;8.10;99.90
35027;DHT22;60696;51.426;6.934;2023-04-15T06:07:57;8.20;99.90
35027;DHT22;60696;51.426;6.934;2023-04-15T06:10:23;8.40;99.90
35027;DHT22;60696;51.426;6.934;2023-04-15T06:12:49;8.60;99.90
35027;DHT22;60696;51.426;6.934;2023-04-15T06:15:14;8.60;99.90
35027;DHT22;60696;51.426;6.934;2023-04-15T06:17:41;8.70;99.90
35027;DHT22;60696;51.426;6.934;2023-04-15T06:20:06;8.90;99.90
35027;DHT22;60696;51.426;6.934;2023-04-15T06:22:32;9.10;99.90
35027;DHT22;60696;51.426;6.934;2023-04-15T06:24:58;9.60;99.90
35027;DHT22;60696;51.426;6.934;2023-04-15T06:27:24;9.70;99.90
35027;DHT22;60696;51.426;6.934;2023-04-15T06:29:49;10.10;99.90
35027;DHT22;60696;51.426;6.934;2023-04-15T06:32:15;10.40;99.90
35027;DHT22;60696;51.426;6.934;2023-04-15T06:34:41;10.80;99.90
35027;DHT22;60696;51.426;6.934;2023-04-15T06:37:06;10.60;99.90
35027;DHT22;60696;51.426;6.934;2023-04-15T06:39:34;10.90;99.90
35027;DHT22;60696;51.426;6.934;2023-04-15T06:41:59;11.30;99.90
35027;DHT22;60696;51.426;6.934;2023-04-15T06:44:25;12.00;99.90
35027;DHT22;60696;51.426;6.934;2023-04-15T06:46:51;12.40;99.90
35027;DHT22;60696;51.426;6.934;2023-04-15T06:49:17;13.00;99.90
35027;DHT22;60696;51.426;6.934;2023-04-15T06:51:42;13.10;99.90
35027;DHT22;60696;51.426;6.934;2023-04-15T06:54:08;13.20;99.90
35027;DHT22;60696;51.426;6.934;2023-04-15T06:56:33;13.70;99.90
35027;DHT22;60696;51.426;6.934;2023-04-15T06:58:59;15.00;98.60
35027;DHT22;60696;51.426;6.934;2023-04-15T07:01:25;15.20;96.60
35027;DHT22;60696;51.426;6.934;2023-04-15T07:03:51;14.60;98.40
35027;DHT22;60696;51.426;6.934;2023-04-15T07:06:16;14.40;98.80
35027;DHT22;60696;51.426;6.934;2023-04-15T07:08:42;14.90;98.10
35027;DHT22;60696;51.426;6.934;2023-04-15T07:11:08;14.40;98.60
35027;DHT22;60696;51.426;6.934;2023-04-15T07:13:33;13.90;99.80
35027;DHT22;60696;51.426;6.934;2023-04-15T07:15:59;13.10;99.90
35027;DHT22;60696;51.426;6.934;2023-04-15T07:18:24;12.80;99.90
35027;DHT22;60696;51.426;6.934;2023-04-15T07:20:50;13.10;99.90
35027;DHT22;60696;51.426;6.934;2023-04-15T07:23:16;13.10;99.90
35027;DHT22;60696;51.426;6.934;2023-04-15T07:25:42;13.00;99.90
35027;DHT22;60696;51.426;6.934;2023-04-15T07:28:08;12.80;99.90
35027;DHT22;60696;51.426;6.934;2023-04-15T07:30:33;12.50;99.90
35027;DHT22;60696;51.426;6.934;2023-04-15T07:33:00;12.90;99.90
35027;DHT22;60696;51.426;6.934;2023-04-15T07:35:26;12.60;99.90
35027;DHT22;60696;51.426;6.934;2023-04-15T07:37:52;12.40;99.90
35027;DHT22;60696;51.426;6.934;2023-04-15T07:40:18;12.30;99.90
35027;DHT22;60696;51.426;6.934;2023-04-15T07:42:44;11.80;99.90
35027;DHT22;60696;51.426;6.934;2023-04-15T07:45:10;11.30;99.90
35027;DHT22;60696;51.426;6.934;2023-04-15T07:47:37;11.20;99.90
35027;DHT22;60696;51.426;6.934;2023-04-15T07:50:02;11.10;99.90
35027;DHT22;60696;51.426;6.934;2023-04-15T07:52:28;11.30;99.90
35027;DHT22;60696;51.426;6.934;2023-04-15T07:54:54;11.60;99.90
35027;DHT22;60696;51.426;6.934;2023-04-15T07:57:19;11.60;99.90
35027;DHT22;60696;51.426;6.934;2023-04-15T07:59:45;11.60;99.90
35027;DHT22;60696;51.426;6.934;2023-04-15T08:02:11;11.50;99.90
35027;DHT22;60696;51.426;6.934;2023-04-15T08:04:36;11.60;99.90
35027;DHT22;60696;51.426;6.934;2023-04-15T08:07:03;11.80;99.90
35027;DHT22;60696;51.426;6.934;2023-04-15T08:09:29;12.10;99.90
35027;DHT22;60696;51.426;6.934;2023-04-15T08:11:55;12.50;99.90
35027;DHT22;60696;51.426;6.934;2023-04-15T08:14:21;12.70;99.90
35027;DHT22;60696;51.426;6.934;2023-04-15T08:16:47;12.60;99.90
35027;DHT22;60696;51.426;6.934;2023-04-15T08:19:12;12.60;99.90
35027;DHT22;60696;51.426;6.934;2023-04-15T08:21:38;12.80;99.90
35027;DHT22;60696;51.426;6.934;2023-04-15T08:24:05;13.00;99.90
35027;DHT22;60696;51.426;6.934;2023-04-15T08:26:31;13.30;99.90
35027;DHT22;60696;51.426;6.934;2023-04-15T08:28:57;12.90;99.90
35027;DHT22;60696;51.426;6.934;2023-04-15T08:31:22;12.60;99.90
35027;DHT22;60696;51.426;6.934;2023-04-15T08:33:48;12.50;99.90
35027;DHT22;60696;51.426;6.934;2023-04-15T08:36:16;12.50;99.90
35027;DHT22;60696;51.426;6.934;2023-04-15T08:38:43;12.60;99.90
35027;DHT22;60696;51.426;6.934;2023-04-15T08:41:17;12.80;99.90
35027;DHT22;60696;51.426;6.934;2023-04-15T08:44:04;13.30;99.90
35027;DHT22;60696;51.426;6.934;2023-04-15T08:46:31;13.80;99.80
35027;DHT22;60696;51.426;6.934;2023-04-15T08:48:59;14.30;99.20
35027;DHT22;60696;51.426;6.934;2023-04-15T08:51:27;15.00;96.20
35027;DHT22;60696;51.426;6.934;2023-04-15T08:53:54;14.60;99.10
35027;DHT22;60696;51.426;6.934;2023-04-15T08:56:25;15.40;95.70
35027;DHT22;60696;51.426;6.934;2023-04-15T08:58:53;16.20;94.50
35027;DHT22;60696;51.426;6.934;2023-04-15T09:01:19;16.50;90.20
35027;DHT22;60696;51.426;6.934;2023-04-15T09:03:48;16.20;91.50
35027;DHT22;60696;51.426;6.934;2023-04-15T09:06:16;16.10;91.10
35027;DHT22;60696;51.426;6.934;2023-04-15T09:08:41;16.00;91.20
35027;DHT22;60696;51.426;6.934;2023-04-15T09:11:07;15.80;91.50
35027;DHT22;60696;51.426;6.934;2023-04-15T09:13:33;15.30;94.50
35027;DHT22;60696;51.426;6.934;2023-04-15T09:16:01;15.40;92.90
35027;DHT22;60696;51.426;6.934;2023-04-15T09:18:37;15.70;91.90
35027;DHT22;60696;51.426;6.934;2023-04-15T09:21:11;14.90;94.00
35027;DHT22;60696;51.426;6.934;2023-04-15T09:23:37;14.80;94.60
35027;DHT22;60696;51.426;6.934;2023-04-15T09:26:04;14.20;95.80
35027;DHT22;60696;51.426;6.934;2023-04-15T09:28:30;13.80;99.20
35027;DHT22;60696;51.426;6.934;2023-04-15T09:31:00;13.60;99.60
35027;DHT22;60696;51.426;6.934;2023-04-15T09:33:27;13.50;99.90
35027;DHT22;60696;51.426;6.934;2023-04-15T09:35:59;13.50;99.90
35027;DHT22;60696;51.426;6.934;2023-04-15T09:38:25;14.30;99.90
35027;DHT22;60696;51.426;6.934;2023-04-15T09:40:51;13.70;99.90
35027;DHT22;60696;51.426;6.934;2023-04-15T09:43:16;13.50;99.90
35027;DHT22;60696;51.426;6.934;2023-04-15T09:45:51;13.40;99.90
35027;DHT22;60696;51.426;6.934;2023-04-15T09:48:21;13.10;99.90
35027;DHT22;60696;51.426;6.934;2023-04-15T09:50:48;13.30;99.90
35027;DHT22;60696;51.426;6.934;2023-04-15T09:53:16;13.30;99.90
35027;DHT22;60696;51.426;6.934;2023-04-15T09:55:55;13.40;99.90
35027;DHT22;60696;51.426;6.934;2023-04-15T09:58:26;13.30;99.90
35027;DHT22;60696;51.426;6.934;2023-04-15T10:00:53;13.20;99.90
35027;DHT22;60696;51.426;6.934;2023-04-15T10:03:27;12.80;99.90
35027;DHT22;60696;51.426;6.934;2023-04-15T10:05:54;12.40;99.90
35027;DHT22;60696;51.426;6.934;2023-04-15T10:08:23;12.20;99.90
35027;DHT22;60696;51.426;6.934;2023-04-15T10:10:49;12.20;99.90
35027;DHT22;60696;51.426;6.934;2023-04-15T10:13:29;12.10;99.90
35027;DHT22;60696;51.426;6.934;2023-04-15T10:16:06;12.10;99.90
35027;DHT22;60696;51.426;6.934;2023-04-15T10:18:37;12.10;99.90
35027;DHT22;60696;51.426;6.934;2023-04-15T10:21:05;12.00;99.90
35027;DHT22;60696;51.426;6.934;2023-04-15T10:23:33;11.90;99.90
35027;DHT22;60696;51.426;6.934;2023-04-15T10:25:59;12.00;99.90
35027;DHT22;60696;51.426;6.934;2023-04-15T10:28:25;12.30;99.90
35027;DHT22;60696;51.426;6.934;2023-04-15T10:30:51;12.10;99.90
35027;DHT22;60696;51.426;6.934;2023-04-15T10:33:20;11.90;99.90
35027;DHT22;60696;51.426;6.934;2023-04-15T10:35:47;11.50;99.90
35027;DHT22;60696;51.426;6.934;2023-04-15T10:38:33;11.50;99.90
35027;DHT22;60696;51.426;6.934;2023-04-15T10:43:37;11.00;99.90
35027;DHT22;60696;51.426;6.934;2023-04-15T10:46:05;11.20;99.90
35027;DHT22;60696;51.426;6.934;2023-04-15T10:48:31;11.40;99.90
35027;DHT22;60696;51.426;6.934;2023-04-15T10:50:56;11.60;99.90
35027;DHT22;60696;51.426;6.934;2023-04-15T10:53:29;11.60;99.90
35027;DHT22;60696;51.426;6.934;2023-04-15T10:55:59;11.70;99.90
35027;DHT22;60696;51.426;6.934;2023-04-15T10:58:27;11.60;99.90
35027;DHT22;60696;51.426;6.934;2023-04-15T11:01:05;11.70;99.90
35027;DHT22;60696;51.426;6.934;2023-04-15T11:03:39;11.80;99.90
35027;DHT22;60696;51.426;6.934;2023-04-15T11:06:06;11.80;99.90
35027;DHT22;60696;51.426;6.934;2023-04-15T11:08:54;11.90;99.90
35027;DHT22;60696;51.426;6.934;2023-04-15T11:11:21;11.90;99.90
35027;DHT22;60696;51.426;6.934;2023-04-15T11:13:49;11.90;99.90
35027;DHT22;60696;51.426;6.934;2023-04-15T11:16:15;11.70;99.90
35027;DHT22;60696;51.426;6.934;2023-04-15T11:18:41;11.90;99.90
35027;DHT22;60696;51.426;6.934;2023-04-15T11:21:07;11.80;99.90
35027;DHT22;60696;51.426;6.934;2023-04-15T11:23:39;11.60;99.90
35027;DHT22;60696;51.426;6.934;2023-04-15T11:26:08;11.40;99.90
35027;DHT22;60696;51.426;6.934;2023-04-15T11:28:37;11.50;99.90
35027;DHT22;60696;51.426;6.934;2023-04-15T11:31:09;11.60;99.90
35027;DHT22;60696;51.426;6.934;2023-04-15T11:33:37;11.40;99.90
35027;DHT22;60696;51.426;6.934;2023-04-15T11:36:03;11.40;99.90
35027;DHT22;60696;51.426;6.934;2023-04-15T11:38:29;11.20;99.90
35027;DHT22;60696;51.426;6.934;2023-04-15T11:40:56;11.20;99.90
35027;DHT22;60696;51.426;6.934;2023-04-15T11:43:22;11.20;99.90
35027;DHT22;60696;51.426;6.934;2023-04-15T11:48:17;10.90;99.90
35027;DHT22;60696;51.426;6.934;2023-04-15T11:50:51;11.00;99.90
35027;DHT22;60696;51.426;6.934;2023-04-15T11:53:17;11.10;99.90
35027;DHT22;60696;51.426;6.934;2023-04-15T11:55:44;11.10;99.90
35027;DHT22;60696;51.426;6.934;2023-04-15T11:58:18;11.00;99.90
35027;DHT22;60696;51.426;6.934;2023-04-15T12:01:06;11.00;99.90
35027;DHT22;60696;51.426;6.934;2023-04-15T12:03:41;10.90;99.90
35027;DHT22;60696;51.426;6.934;2023-04-15T12:08:56;10.80;99.90
35027;DHT22;60696;51.426;6.934;2023-04-15T12:16:48;10.60;99.90
35027;DHT22;60696;51.426;6.934;2023-04-15T12:19:25;10.60;99.90
35027;DHT22;60696;51.426;6.934;2023-04-15T12:21:57;10.60;99.90
35027;DHT22;60696;51.426;6.934;2023-04-15T12:24:24;10.60;99.90
35027;DHT22;60696;51.426;6.934;2023-04-15T12:26:52;10.60;99.90
35027;DHT22;60696;51.426;6.934;2023-04-15T12:29:19;10.50;99.90
35027;DHT22;60696;51.426;6.934;2023-04-15T12:31:52;10.50;99.90
35027;DHT22;60696;51.426;6.934;2023-04-15T12:34:25;10.70;99.90
35027;DHT22;60696;51.426;6.934;2023-04-15T12:36:52;10.80;99.90
35027;DHT22;60696;51.426;6.934;2023-04-15T12:39:24;10.90;99.90
35027;DHT22;60696;51.426;6.934;2023-04-15T12:41:50;10.90;99.90
35027;DHT22;60696;51.426;6.934;2023-04-15T12:44:17;10.80;99.90
35027;DHT22;60696;51.426;6.934;2023-04-15T12:46:42;10.70;99.90
35027;DHT22;60696;51.426;6.934;2023-04-15T12:49:08;10.80;99.90
35027;DHT22;60696;51.426;6.934;2023-04-15T12:51:34;10.70;99.90
35027;DHT22;60696;51.426;6.934;2023-04-15T12:53:59;10.70;99.90
35027;DHT22;60696;51.426;6.934;2023-04-15T12:56:25;10.90;99.90
35027;DHT22;60696;51.426;6.934;2023-04-15T12:58:51;10.90;99.90
35027;DHT22;60696;51.426;6.934;2023-04-15T13:01:17;11.10;99.90
35027;DHT22;60696;51.426;6.934;2023-04-15T13:03:43;11.20;99.90
35027;DHT22;60696;51.426;6.934;2023-04-15T13:06:09;11.10;99.90
35027;DHT22;60696;51.426;6.934;2023-04-15T13:08:34;11.10;99.90
35027;DHT22;60696;51.426;6.934;2023-04-15T13:11:00;11.00;99.90
35027;DHT22;60696;51.426;6.934;2023-04-15T13:13:26;11.00;99.90
35027;DHT22;60696;51.426;6.934;2023-04-15T13:15:52;11.00;99.90
35027;DHT22;60696;51.426;6.934;2023-04-15T13:18:17;11.10;99.90
35027;DHT22;60696;51.426;6.934;2023-04-15T13:20:43;11.20;99.90
35027;DHT22;60696;51.426;6.934;2023-04-15T13:23:08;11.10;99.90
35027;DHT22;60696;51.426;6.934;2023-04-15T13:25:34;11.00;99.90
35027;DHT22;60696;51.426;6.934;2023-04-15T13:28:00;11.00;99.90
35027;DHT22;60696;51.426;6.934;2023-04-15T13:30:26;11.00;99.90
35027;DHT22;60696;51.426;6.934;2023-04-15T13:32:52;11.00;99.90
35027;DHT22;60696;51.426;6.934;2023-04-15T13:35:18;10.90;99.90
35027;DHT22;60696;51.426;6.934;2023-04-15T13:37:45;10.80;99.90
35027;DHT22;60696;51.426;6.934;2023-04-15T13:40:11;10.80;99.90
35027;DHT22;60696;51.426;6.934;2023-04-15T13:42:37;10.80;99.90
35027;DHT22;60696;51.426;6.934;2023-04-15T13:45:02;10.80;99.90
35027;DHT22;60696;51.426;6.934;2023-04-15T13:47:28;10.80;99.90
35027;DHT22;60696;51.426;6.934;2023-04-15T13:49:54;10.80;99.90
35027;DHT22;60696;51.426;6.934;2023-04-15T13:52:21;10.90;99.90
35027;DHT22;60696;51.426;6.934;2023-04-15T13:54:47;11.00;99.90
35027;DHT22;60696;51.426;6.934;2023-04-15T13:57:13;10.80;99.90
35027;DHT22;60696;51.426;6.934;2023-04-15T13:59:38;10.90;99.90
35027;DHT22;60696;51.426;6.934;2023-04-15T14:02:04;10.90;99.90
35027;DHT22;60696;51.426;6.934;2023-04-15T14:04:30;10.90;99.90
35027;DHT22;60696;51.426;6.934;2023-04-15T14:06:56;10.90;99.90
35027;DHT22;60696;51.426;6.934;2023-04-15T14:09:22;10.90;99.90
35027;DHT22;60696;51.426;6.934;2023-04-15T14:11:49;10.90;99.90
35027;DHT22;60696;51.426;6.934;2023-04-15T14:14:15;11.00;99.90
35027;DHT22;60696;51.426;6.934;2023-04-15T14:16:40;11.10;99.90
35027;DHT22;60696;51.426;6.934;2023-04-15T14:19:06;11.00;99.90
35027;DHT22;60696;51.426;6.934;2023-04-15T14:21:32;10.80;99.90
35027;DHT22;60696;51.426;6.934;2023-04-15T14:23:58;10.60;99.90
35027;DHT22;60696;51.426;6.934;2023-04-15T14:26:24;10.50;99.90
35027;DHT22;60696;51.426;6.934;2023-04-15T14:28:50;10.50;99.90
35027;DHT22;60696;51.426;6.934;2023-04-15T14:31:15;10.60;99.90
35027;DHT22;60696;51.426;6.934;2023-04-15T14:33:41;10.70;99.90
35027;DHT22;60696;51.426;6.934;2023-04-15T14:36:08;10.80;99.90
35027;DHT22;60696;51.426;6.934;2023-04-15T14:38:34;10.70;99.90
35027;DHT22;60696;51.426;6.934;2023-04-15T14:41:04;10.80;99.90
35027;DHT22;60696;51.426;6.934;2023-04-15T14:43:30;10.80;99.90
35027;DHT22;60696;51.426;6.934;2023-04-15T14:45:56;10.70;99.90
35027;DHT22;60696;51.426;6.934;2023-04-15T14:48:21;10.70;99.90
35027;DHT22;60696;51.426;6.934;2023-04-15T14:50:47;10.60;99.90
35027;DHT22;60696;51.426;6.934;2023-04-15T14:53:13;10.60;99.90
35027;DHT22;60696;51.426;6.934;2023-04-15T14:55:38;10.50;99.90
35027;DHT22;60696;51.426;6.934;2023-04-15T14:58:05;10.30;99.90
35027;DHT22;60696;51.426;6.934;2023-04-15T15:00:30;10.30;99.90
35027;DHT22;60696;51.426;6.934;2023-04-15T15:02:56;10.20;99.90
35027;DHT22;60696;51.426;6.934;2023-04-15T15:05:22;10.20;99.90
35027;DHT22;60696;51.426;6.934;2023-04-15T15:07:48;10.20;99.90
35027;DHT22;60696;51.426;6.934;2023-04-15T15:10:13;10.30;99.90
35027;DHT22;60696;51.426;6.934;2023-04-15T15:12:39;10.40;99.90
35027;DHT22;60696;51.426;6.934;2023-04-15T15:15:05;10.50;99.90
35027;DHT22;60696;51.426;6.934;2023-04-15T15:17:31;10.60;99.90
35027;DHT22;60696;51.426;6.934;2023-04-15T15:19:56;10.50;99.90
35027;DHT22;60696;51.426;6.934;2023-04-15T15:22:22;10.60;99.90
35027;DHT22;60696;51.426;6.934;2023-04-15T15:24:48;10.60;99.90
35027;DHT22;60696;51.426;6.934;2023-04-15T15:27:13;10.70;99.90
35027;DHT22;60696;51.426;6.934;2023-04-15T15:29:39;10.50;99.90
35027;DHT22;60696;51.426;6.934;2023-04-15T15:32:05;10.50;99.90
35027;DHT22;60696;51.426;6.934;2023-04-15T15:34:31;10.60;99.90
35027;DHT22;60696;51.426;6.934;2023-04-15T15:36:56;10.40;99.90
35027;DHT22;60696;51.426;6.934;2023-04-15T15:39:22;10.30;99.90
35027;DHT22;60696;51.426;6.934;2023-04-15T15:41:48;10.20;99.90
35027;DHT22;60696;51.426;6.934;2023-04-15T15:44:14;10.10;99.90
35027;DHT22;60696;51.426;6.934;2023-04-15T15:46:40;10.10;99.90